sensor_id;sensor_type;location;lat;lon;timestamp;noise_LAeq;noise_LA_min;noise_LA_max;noise_LA01;noise_LA95
58197;Laerm;43999;51.660;5.616;2023-04-03T00:02:02;44.66;38.21;54.42;;
58197;Laerm;43999;51.660;5.616;2023-04-03T00:04:46;53.85;37.70;71.95;;
58197;Laerm;43999;51.660;5.616;2023-04-03T00:07:19;45.62;38.52;60.37;;
58197;Laerm;43999;51.660;5.616;2023-04-03T00:09:47;55.35;37.32;74.18;;
58197;Laerm;43999;51.660;5.616;2023-04-03T00:12:25;42.20;38.67;46.15;;
58197;Laerm;43999;51.660;5.616;2023-04-03T00:15:02;43.52;38.67;55.05;;
58197;Laerm;43999;51.660;5.616;2023-04-03T00:17:31;41.96;39.08;43.72;;
58197;Laerm;43999;51.660;5.616;2023-04-03T00:20:05;42.06;39.08;43.86;;
58197;Laerm;43999;51.660;5.616;2023-04-03T00:22:37;41.97;38.95;43.49;;
58197;Laerm;43999;51.660;5.616;2023-04-03T00:25:14;42.22;38.52;53.35;;
58197;Laerm;43999;51.660;5.616;2023-04-03T00:27:44;44.80;38.21;56.66;;
58197;Laerm;43999;51.660;5.616;2023-04-03T00:30:21;43.74;39.58;56.06;;
58197;Laerm;43999;51.660;5.616;2023-04-03T00:32:53;45.94;38.52;56.45;;
58197;Laerm;43999;51.660;5.616;2023-04-03T00:35:24;42.07;38.67;45.11;;
58197;Laerm;43999;51.660;5.616;2023-04-03T00:37:55;42.57;39.58;50.15;;
58197;Laerm;43999;51.660;5.616;2023-04-03T00:40:27;42.28;39.34;46.38;;
58197;Laerm;43999;51.660;5.616;2023-04-03T00:42:59;41.84;38.52;50.58;;
58197;Laerm;43999;51.660;5.616;2023-04-03T00:45:39;49.95;38.05;65.44;;
58197;Laerm;43999;51.660;5.616;2023-04-03T00:48:23;41.76;38.21;49.74;;
58197;Laerm;43999;51.660;5.616;2023-04-03T00:50:52;41.75;36.91;43.68;;
58197;Laerm;43999;51.660;5.616;2023-04-03T00:53:32;42.13;38.95;51.60;;
58197;Laerm;43999;51.660;5.616;2023-04-03T00:56:05;42.74;39.46;52.22;;
58197;Laerm;43999;51.660;5.616;2023-04-03T00:59:11;41.72;37.88;48.03;;
58197;Laerm;43999;51.660;5.616;2023-04-03T01:01:49;50.23;38.52;67.79;;
58197;Laerm;43999;51.660;5.616;2023-04-03T01:04:32;41.82;38.37;43.63;;
58197;Laerm;43999;51.660;5.616;2023-04-03T01:07:12;56.66;38.37;77.78;;
58197;Laerm;43999;51.660;5.616;2023-04-03T01:09:50;41.97;38.81;47.10;;
58197;Laerm;43999;51.660;5.616;2023-04-03T01:12:28;42.89;39.34;46.48;;
58197;Laerm;43999;51.660;5.616;2023-04-03T01:15:08;41.89;39.08;43.77;;
58197;Laerm;43999;51.660;5.616;2023-04-03T01:17:54;42.54;37.88;49.20;;
58197;Laerm;43999;51.660;5.616;2023-04-03T01:24:05;41.85;38.81;43.77;;
58197;Laerm;43999;51.660;5.616;2023-04-03T01:26:40;41.90;37.88;47.00;;
58197;Laerm;43999;51.660;5.616;2023-04-03T01:29:12;42.10;38.52;46.05;;
58197;Laerm;43999;51.660;5.616;2023-04-03T01:32:02;41.93;36.69;47.34;;
58197;Laerm;43999;51.660;5.616;2023-04-03T01:34:34;41.91;38.52;44.58;;
58197;Laerm;43999;51.660;5.616;2023-04-03T01:37:09;42.00;38.37;51.62;;
58197;Laerm;43999;51.660;5.616;2023-04-03T01:39:39;43.87;38.95;54.72;;
58197;Laerm;43999;51.660;5.616;2023-04-03T01:42:08;53.63;39.08;70.39;;
58197;Laerm;43999;51.660;5.616;2023-04-03T01:44:39;41.99;37.88;55.26;;
58197;Laerm;43999;51.660;5.616;2023-04-03T01:47:08;43.67;37.32;56.81;;
58197;Laerm;43999;51.660;5.616;2023-04-03T01:49:43;46.92;38.52;58.60;;
58197;Laerm;43999;51.660;5.616;2023-04-03T01:52:20;51.36;38.52;67.96;;
58197;Laerm;43999;51.660;5.616;2023-04-03T01:54:49;51.72;38.52;65.94;;
58197;Laerm;43999;51.660;5.616;2023-04-03T01:57:23;41.99;36.34;53.00;;
58197;Laerm;43999;51.660;5.616;2023-04-03T02:00:06;42.09;38.21;56.08;;
58197;Laerm;43999;51.660;5.616;2023-04-03T02:02:39;42.32;39.08;54.37;;
58197;Laerm;43999;51.660;5.616;2023-04-03T02:05:07;50.82;39.21;66.01;;
58197;Laerm;43999;51.660;5.616;2023-04-03T02:07:44;52.44;38.81;69.90;;
58197;Laerm;43999;51.660;5.616;2023-04-03T02:10:13;42.55;37.70;46.91;;
58197;Laerm;43999;51.660;5.616;2023-04-03T02:12:41;49.25;39.21;65.52;;
58197;Laerm;43999;51.660;5.616;2023-04-03T02:15:12;52.43;39.70;70.19;;
58197;Laerm;43999;51.660;5.616;2023-04-03T02:17:41;52.43;39.34;69.32;;
58197;Laerm;43999;51.660;5.616;2023-04-03T02:20:12;42.72;39.08;51.80;;
58197;Laerm;43999;51.660;5.616;2023-04-03T02:22:43;48.14;40.03;67.54;;
58197;Laerm;43999;51.660;5.616;2023-04-03T02:25:12;43.37;40.23;48.02;;
58197;Laerm;43999;51.660;5.616;2023-04-03T02:27:41;43.82;39.81;55.37;;
58197;Laerm;43999;51.660;5.616;2023-04-03T02:30:13;51.57;40.43;70.47;;
58197;Laerm;43999;51.660;5.616;2023-04-03T02:32:57;43.75;39.21;51.56;;
58197;Laerm;43999;51.660;5.616;2023-04-03T02:35:57;43.26;39.70;47.79;;
58197;Laerm;43999;51.660;5.616;2023-04-03T02:38:26;46.97;39.92;61.12;;
58197;Laerm;43999;51.660;5.616;2023-04-03T02:41:09;45.05;40.53;63.02;;
58197;Laerm;43999;51.660;5.616;2023-04-03T02:43:42;44.07;39.46;57.32;;
58197;Laerm;43999;51.660;5.616;2023-04-03T02:46:14;52.07;39.58;66.61;;
58197;Laerm;43999;51.660;5.616;2023-04-03T02:48:44;49.39;38.05;62.46;;
58197;Laerm;43999;51.660;5.616;2023-04-03T02:51:18;52.70;39.11;70.71;;
58197;Laerm;43999;51.660;5.616;2023-04-03T02:53:50;50.99;39.58;66.79;;
58197;Laerm;43999;51.660;5.616;2023-04-03T02:56:25;52.73;39.58;68.87;;
58197;Laerm;43999;51.660;5.616;2023-04-03T02:58:55;53.07;40.13;66.23;;
58197;Laerm;43999;51.660;5.616;2023-04-03T03:01:24;52.05;41.22;66.81;;
58197;Laerm;43999;51.660;5.616;2023-04-03T03:03:52;54.83;40.43;67.89;;
58197;Laerm;43999;51.660;5.616;2023-04-03T03:06:22;48.25;40.80;65.22;;
58197;Laerm;43999;51.660;5.616;2023-04-03T03:08:53;47.53;40.53;59.51;;
58197;Laerm;43999;51.660;5.616;2023-04-03T03:11:29;50.41;40.43;69.64;;
58197;Laerm;43999;51.660;5.616;2023-04-03T03:14:07;52.13;41.53;67.30;;
58197;Laerm;43999;51.660;5.616;2023-04-03T03:16:36;46.41;40.43;58.01;;
58197;Laerm;43999;51.660;5.616;2023-04-03T03:19:06;59.53;41.30;76.64;;
58197;Laerm;43999;51.660;5.616;2023-04-03T03:21:34;53.28;41.06;66.23;;
58197;Laerm;43999;51.660;5.616;2023-04-03T03:24:04;56.55;41.88;69.73;;
58197;Laerm;43999;51.660;5.616;2023-04-03T03:26:58;57.58;42.65;71.61;;
58197;Laerm;43999;51.660;5.616;2023-04-03T03:29:36;53.69;43.09;70.87;;
58197;Laerm;43999;51.660;5.616;2023-04-03T03:32:05;47.15;41.53;63.45;;
58197;Laerm;43999;51.660;5.616;2023-04-03T03:34:35;53.66;41.96;66.82;;
58197;Laerm;43999;51.660;5.616;2023-04-03T03:37:04;55.52;41.53;68.95;;
58197;Laerm;43999;51.660;5.616;2023-04-03T03:39:35;52.30;42.53;68.80;;
58197;Laerm;43999;51.660;5.616;2023-04-03T03:42:03;55.53;42.29;70.05;;
58197;Laerm;43999;51.660;5.616;2023-04-03T03:44:32;52.82;42.09;71.01;;
58197;Laerm;43999;51.660;5.616;2023-04-03T03:47:00;53.53;41.46;66.19;;
58197;Laerm;43999;51.660;5.616;2023-04-03T03:49:29;51.50;42.16;60.84;;
58197;Laerm;43999;51.660;5.616;2023-04-03T03:52:01;54.26;42.16;68.29;;
58197;Laerm;43999;51.660;5.616;2023-04-03T03:54:30;52.42;42.16;67.53;;
58197;Laerm;43999;51.660;5.616;2023-04-03T03:56:59;50.32;42.88;61.06;;
58197;Laerm;43999;51.660;5.616;2023-04-03T03:59:38;55.17;42.35;70.98;;
58197;Laerm;43999;51.660;5.616;2023-04-03T04:02:08;58.08;44.35;68.61;;
58197;Laerm;43999;51.660;5.616;2023-04-03T04:04:42;56.75;43.39;70.77;;
58197;Laerm;43999;51.660;5.616;2023-04-03T04:07:19;58.24;44.73;72.37;;
58197;Laerm;43999;51.660;5.616;2023-04-03T04:09:50;61.67;43.77;76.94;;
58197;Laerm;43999;51.660;5.616;2023-04-03T04:12:21;56.13;44.54;69.16;;
58197;Laerm;43999;51.660;5.616;2023-04-03T04:14:51;58.74;43.49;76.98;;
58197;Laerm;43999;51.660;5.616;2023-04-03T04:17:32;53.04;43.44;68.30;;
58197;Laerm;43999;51.660;5.616;2023-04-03T04:20:04;50.74;43.77;62.03;;
58197;Laerm;43999;51.660;5.616;2023-04-03T04:22:35;51.77;43.29;69.38;;
58197;Laerm;43999;51.660;5.616;2023-04-03T04:25:13;57.37;44.69;72.30;;
58197;Laerm;43999;51.660;5.616;2023-04-03T04:27:52;56.41;45.42;70.53;;
58197;Laerm;43999;51.660;5.616;2023-04-03T04:30:30;58.61;45.91;71.11;;
58197;Laerm;43999;51.660;5.616;2023-04-03T04:32:59;60.71;43.39;75.41;;
58197;Laerm;43999;51.660;5.616;2023-04-03T04:35:43;56.46;43.68;67.85;;
58197;Laerm;43999;51.660;5.616;2023-04-03T04:39:08;58.43;44.38;75.56;;
58197;Laerm;43999;51.660;5.616;2023-04-03T04:42:02;62.92;44.73;78.61;;
58197;Laerm;43999;51.660;5.616;2023-04-03T04:44:49;60.43;47.44;72.42;;
58197;Laerm;43999;51.660;5.616;2023-04-03T04:48:05;59.90;46.93;78.75;;
58197;Laerm;43999;51.660;5.616;2023-04-03T04:51:14;60.80;47.18;71.39;;
58197;Laerm;43999;51.660;5.616;2023-04-03T04:54:12;59.40;45.04;70.90;;
58197;Laerm;43999;51.660;5.616;2023-04-03T04:59:58;60.41;43.24;78.24;;
58197;Laerm;43999;51.660;5.616;2023-04-03T05:02:41;62.46;46.64;75.28;;
58197;Laerm;43999;51.660;5.616;2023-04-03T05:05:32;62.02;48.46;72.93;;
58197;Laerm;43999;51.660;5.616;2023-04-03T05:08:17;58.66;47.18;70.75;;
58197;Laerm;43999;51.660;5.616;2023-04-03T05:10:55;63.01;48.25;77.82;;
58197;Laerm;43999;51.660;5.616;2023-04-03T05:14:00;61.37;49.88;72.77;;
58197;Laerm;43999;51.660;5.616;2023-04-03T05:16:37;63.16;46.38;81.69;;
58197;Laerm;43999;51.660;5.616;2023-04-03T05:19:14;60.55;45.17;77.10;;
58197;Laerm;43999;51.660;5.616;2023-04-03T05:22:05;62.36;50.83;72.07;;
58197;Laerm;43999;51.660;5.616;2023-04-03T05:24:49;59.65;47.14;73.23;;
58197;Laerm;43999;51.660;5.616;2023-04-03T05:27:28;59.56;44.69;71.78;;
58197;Laerm;43999;51.660;5.616;2023-04-03T05:30:17;62.99;46.90;77.74;;
58197;Laerm;43999;51.660;5.616;2023-04-03T05:32:55;60.92;50.97;76.09;;
58197;Laerm;43999;51.660;5.616;2023-04-03T05:35:51;63.44;49.06;73.09;;
58197;Laerm;43999;51.660;5.616;2023-04-03T05:38:34;58.11;45.60;69.09;;
58197;Laerm;43999;51.660;5.616;2023-04-03T05:41:05;62.75;50.22;74.79;;
58197;Laerm;43999;51.660;5.616;2023-04-03T05:43:35;64.95;48.98;82.85;;
58197;Laerm;43999;51.660;5.616;2023-04-03T05:46:21;61.23;48.05;70.86;;
58197;Laerm;43999;51.660;5.616;2023-04-03T05:48:55;65.15;52.62;78.49;;
58197;Laerm;43999;51.660;5.616;2023-04-03T05:51:39;63.21;52.42;72.13;;
58197;Laerm;43999;51.660;5.616;2023-04-03T05:54:30;63.54;53.99;72.82;;
58197;Laerm;43999;51.660;5.616;2023-04-03T05:57:06;64.91;53.77;78.45;;
58197;Laerm;43999;51.660;5.616;2023-04-03T06:00:08;62.89;50.42;74.23;;
58197;Laerm;43999;51.660;5.616;2023-04-03T06:03:17;62.08;50.89;69.70;;
58197;Laerm;43999;51.660;5.616;2023-04-03T06:05:53;64.42;48.90;78.62;;
58197;Laerm;43999;51.660;5.616;2023-04-03T06:08:47;63.48;48.74;74.99;;
58197;Laerm;43999;51.660;5.616;2023-04-03T06:11:20;64.47;49.77;78.41;;
58197;Laerm;43999;51.660;5.616;2023-04-03T06:14:13;62.27;49.33;74.57;;
58197;Laerm;43999;51.660;5.616;2023-04-03T06:17:16;61.88;51.91;71.54;;
58197;Laerm;43999;51.660;5.616;2023-04-03T06:19:57;64.45;54.54;78.31;;
58197;Laerm;43999;51.660;5.616;2023-04-03T06:22:32;63.32;52.20;74.39;;
58197;Laerm;43999;51.660;5.616;2023-04-03T06:25:05;64.57;51.67;78.10;;
58197;Laerm;43999;51.660;5.616;2023-04-03T06:27:55;71.22;55.63;89.96;;
58197;Laerm;43999;51.660;5.616;2023-04-03T06:30:40;64.89;53.76;80.16;;
58197;Laerm;43999;51.660;5.616;2023-04-03T06:33:15;62.51;51.47;77.12;;
58197;Laerm;43999;51.660;5.616;2023-04-03T06:39:21;62.73;51.30;71.79;;
58197;Laerm;43999;51.660;5.616;2023-04-03T06:42:01;65.12;52.59;79.38;;
58197;Laerm;43999;51.660;5.616;2023-04-03T06:45:22;63.29;52.65;81.84;;
58197;Laerm;43999;51.660;5.616;2023-04-03T06:48:57;65.32;52.50;78.74;;
58197;Laerm;43999;51.660;5.616;2023-04-03T06:52:19;64.74;52.17;78.73;;
58197;Laerm;43999;51.660;5.616;2023-04-03T06:55:42;65.28;52.11;77.58;;
58197;Laerm;43999;51.660;5.616;2023-04-03T06:58:30;62.82;51.09;73.12;;
58197;Laerm;43999;51.660;5.616;2023-04-03T07:01:54;63.55;51.56;81.55;;
58197;Laerm;43999;51.660;5.616;2023-04-03T07:04:26;65.21;52.40;77.35;;
58197;Laerm;43999;51.660;5.616;2023-04-03T07:07:03;64.64;49.54;79.69;;
58197;Laerm;43999;51.660;5.616;2023-04-03T07:09:40;63.01;49.15;76.05;;
58197;Laerm;43999;51.660;5.616;2023-04-03T07:12:24;61.85;48.99;77.38;;
58197;Laerm;43999;51.660;5.616;2023-04-03T07:15:16;63.64;50.68;75.89;;
58197;Laerm;43999;51.660;5.616;2023-04-03T07:17:55;64.59;52.82;83.63;;
58197;Laerm;43999;51.660;5.616;2023-04-03T07:20:39;62.04;46.76;75.20;;
58197;Laerm;43999;51.660;5.616;2023-04-03T07:23:10;63.40;52.70;72.04;;
58197;Laerm;43999;51.660;5.616;2023-04-03T07:25:50;62.12;50.61;71.53;;
58197;Laerm;43999;51.660;5.616;2023-04-03T07:28:43;67.29;54.93;79.74;;
58197;Laerm;43999;51.660;5.616;2023-04-03T07:31:19;65.58;52.80;78.02;;
58197;Laerm;43999;51.660;5.616;2023-04-03T07:33:50;61.19;51.52;73.19;;
58197;Laerm;43999;51.660;5.616;2023-04-03T07:36:40;63.70;52.44;75.80;;
58197;Laerm;43999;51.660;5.616;2023-04-03T07:39:28;64.22;50.71;74.29;;
58197;Laerm;43999;51.660;5.616;2023-04-03T07:42:10;62.46;48.84;83.24;;
58197;Laerm;43999;51.660;5.616;2023-04-03T07:44:45;64.11;51.97;83.66;;
58197;Laerm;43999;51.660;5.616;2023-04-03T07:48:02;67.03;50.53;90.24;;
58197;Laerm;43999;51.660;5.616;2023-04-03T07:50:53;64.11;53.44;80.59;;
58197;Laerm;43999;51.660;5.616;2023-04-03T07:53:33;66.42;52.89;80.04;;
58197;Laerm;43999;51.660;5.616;2023-04-03T07:56:40;63.23;49.93;74.82;;
58197;Laerm;43999;51.660;5.616;2023-04-03T07:59:14;61.63;50.36;71.49;;
58197;Laerm;43999;51.660;5.616;2023-04-03T08:02:01;64.73;55.12;79.67;;
58197;Laerm;43999;51.660;5.616;2023-04-03T08:05:01;62.77;51.93;74.46;;
58197;Laerm;43999;51.660;5.616;2023-04-03T08:07:56;62.91;49.59;74.73;;
58197;Laerm;43999;51.660;5.616;2023-04-03T08:11:07;61.45;50.31;80.83;;
58197;Laerm;43999;51.660;5.616;2023-04-03T08:13:57;61.99;50.86;74.00;;
58197;Laerm;43999;51.660;5.616;2023-04-03T08:16:47;66.49;55.28;92.72;;
58197;Laerm;43999;51.660;5.616;2023-04-03T08:19:29;68.35;52.20;87.90;;
58197;Laerm;43999;51.660;5.616;2023-04-03T08:22:02;64.09;52.58;83.10;;
58197;Laerm;43999;51.660;5.616;2023-04-03T08:27:50;65.52;53.87;79.26;;
58197;Laerm;43999;51.660;5.616;2023-04-03T08:30:28;66.39;53.95;79.71;;
58197;Laerm;43999;51.660;5.616;2023-04-03T08:33:04;65.93;49.96;82.52;;
58197;Laerm;43999;51.660;5.616;2023-04-03T08:35:45;78.40;54.73;96.63;;
58197;Laerm;43999;51.660;5.616;2023-04-03T08:38:16;70.15;54.81;87.34;;
58197;Laerm;43999;51.660;5.616;2023-04-03T08:41:13;65.14;51.77;84.83;;
58197;Laerm;43999;51.660;5.616;2023-04-03T08:48:27;65.10;50.60;83.81;;
58197;Laerm;43999;51.660;5.616;2023-04-03T08:51:14;65.30;51.70;83.30;;
58197;Laerm;43999;51.660;5.616;2023-04-03T08:58:18;61.43;47.36;81.15;;
58197;Laerm;43999;51.660;5.616;2023-04-03T09:01:38;66.92;50.68;91.22;;
58197;Laerm;43999;51.660;5.616;2023-04-03T09:04:39;65.49;51.23;85.52;;
58197;Laerm;43999;51.660;5.616;2023-04-03T09:07:53;63.50;50.32;80.95;;
58197;Laerm;43999;51.660;5.616;2023-04-03T09:10:52;64.56;52.59;81.77;;
58197;Laerm;43999;51.660;5.616;2023-04-03T09:17:46;66.19;54.82;84.93;;
58197;Laerm;43999;51.660;5.616;2023-04-03T09:21:25;66.46;50.16;82.48;;
58197;Laerm;43999;51.660;5.616;2023-04-03T09:24:18;64.23;52.76;79.47;;
58197;Laerm;43999;51.660;5.616;2023-04-03T09:27:07;63.05;48.81;76.08;;
58197;Laerm;43999;51.660;5.616;2023-04-03T09:30:02;68.88;51.96;89.94;;
58197;Laerm;43999;51.660;5.616;2023-04-03T09:32:49;65.36;53.67;84.27;;
58197;Laerm;43999;51.660;5.616;2023-04-03T09:35:36;66.38;52.44;87.56;;
58197;Laerm;43999;51.660;5.616;2023-04-03T09:38:33;64.76;50.79;82.37;;
58197;Laerm;43999;51.660;5.616;2023-04-03T09:41:19;65.74;50.67;88.12;;
58197;Laerm;43999;51.660;5.616;2023-04-03T09:44:01;63.16;48.37;80.26;;
58197;Laerm;43999;51.660;5.616;2023-04-03T09:46:36;63.35;51.19;83.56;;
58197;Laerm;43999;51.660;5.616;2023-04-03T09:49:13;67.38;50.92;90.54;;
58197;Laerm;43999;51.660;5.616;2023-04-03T09:51:53;69.77;54.06;93.83;;
58197;Laerm;43999;51.660;5.616;2023-04-03T09:54:37;69.00;53.16;91.00;;
58197;Laerm;43999;51.660;5.616;2023-04-03T09:57:12;65.39;53.78;83.81;;
58197;Laerm;43999;51.660;5.616;2023-04-03T10:00:00;65.37;51.42;82.55;;
58197;Laerm;43999;51.660;5.616;2023-04-03T10:02:39;67.31;54.21;88.50;;
58197;Laerm;43999;51.660;5.616;2023-04-03T10:05:42;67.38;49.69;90.49;;
58197;Laerm;43999;51.660;5.616;2023-04-03T10:08:32;66.35;50.21;85.61;;
58197;Laerm;43999;51.660;5.616;2023-04-03T10:11:16;69.07;54.16;90.57;;
58197;Laerm;43999;51.660;5.616;2023-04-03T10:14:03;70.00;55.15;89.60;;
58197;Laerm;43999;51.660;5.616;2023-04-03T10:17:09;63.77;47.95;80.40;;
58197;Laerm;43999;51.660;5.616;2023-04-03T10:26:49;68.37;53.03;92.31;;
58197;Laerm;43999;51.660;5.616;2023-04-03T10:30:28;69.85;51.11;96.94;;
58197;Laerm;43999;51.660;5.616;2023-04-03T10:42:37;66.93;49.84;85.16;;
58197;Laerm;43999;51.660;5.616;2023-04-03T10:45:26;67.95;53.62;90.39;;
58197;Laerm;43999;51.660;5.616;2023-04-03T10:48:56;70.15;55.08;89.43;;
58197;Laerm;43999;51.660;5.616;2023-04-03T10:52:20;71.44;53.36;94.71;;
58197;Laerm;43999;51.660;5.616;2023-04-03T10:55:37;66.94;55.75;85.11;;
58197;Laerm;43999;51.660;5.616;2023-04-03T10:58:41;68.47;52.88;90.16;;
58197;Laerm;43999;51.660;5.616;2023-04-03T11:01:34;64.18;51.59;85.55;;
58197;Laerm;43999;51.660;5.616;2023-04-03T11:04:19;66.85;53.85;89.10;;
58197;Laerm;43999;51.660;5.616;2023-04-03T11:07:17;63.93;50.66;84.49;;
58197;Laerm;43999;51.660;5.616;2023-04-03T11:09:59;68.04;51.76;89.36;;
58197;Laerm;43999;51.660;5.616;2023-04-03T11:12:46;62.23;48.75;72.30;;
58197;Laerm;43999;51.660;5.616;2023-04-03T11:15:24;64.62;48.88;87.33;;
58197;Laerm;43999;51.660;5.616;2023-04-03T11:18:35;63.94;50.56;79.37;;
58197;Laerm;43999;51.660;5.616;2023-04-03T11:21:31;65.03;47.70;85.35;;
58197;Laerm;43999;51.660;5.616;2023-04-03T11:24:32;67.69;50.21;88.34;;
58197;Laerm;43999;51.660;5.616;2023-04-03T11:27:06;64.58;53.23;84.07;;
58197;Laerm;43999;51.660;5.616;2023-04-03T11:29:46;63.90;48.81;82.54;;
58197;Laerm;43999;51.660;5.616;2023-04-03T11:32:52;66.98;52.21;90.12;;
58197;Laerm;43999;51.660;5.616;2023-04-03T11:35:56;68.31;51.26;88.48;;
58197;Laerm;43999;51.660;5.616;2023-04-03T11:38:35;68.55;50.19;88.45;;
58197;Laerm;43999;51.660;5.616;2023-04-03T11:41:08;65.88;50.70;87.98;;
58197;Laerm;43999;51.660;5.616;2023-04-03T11:44:34;63.39;49.15;80.06;;
58197;Laerm;43999;51.660;5.616;2023-04-03T11:47:07;70.19;52.80;92.96;;
58197;Laerm;43999;51.660;5.616;2023-04-03T12:00:56;65.20;52.40;85.40;;
58197;Laerm;43999;51.660;5.616;2023-04-03T12:07:14;65.08;54.05;82.85;;
58197;Laerm;43999;51.660;5.616;2023-04-03T12:10:15;65.68;55.84;85.28;;
58197;Laerm;43999;51.660;5.616;2023-04-03T12:13:00;66.41;55.32;81.27;;
58197;Laerm;43999;51.660;5.616;2023-04-03T12:18:59;66.66;49.78;89.82;;
58197;Laerm;43999;51.660;5.616;2023-04-03T12:27:28;66.90;57.54;85.78;;
58197;Laerm;43999;51.660;5.616;2023-04-03T12:30:26;66.43;54.85;86.38;;
58197;Laerm;43999;51.660;5.616;2023-04-03T12:34:01;64.91;55.04;86.32;;
58197;Laerm;43999;51.660;5.616;2023-04-03T12:41:30;67.49;52.54;87.42;;
58197;Laerm;43999;51.660;5.616;2023-04-03T12:44:37;63.52;52.69;78.37;;
58197;Laerm;43999;51.660;5.616;2023-04-03T12:47:45;65.42;55.05;84.68;;
58197;Laerm;43999;51.660;5.616;2023-04-03T12:50:32;66.10;48.85;87.34;;
58197;Laerm;43999;51.660;5.616;2023-04-03T12:53:11;66.36;53.23;86.00;;
58197;Laerm;43999;51.660;5.616;2023-04-03T12:55:43;68.18;53.38;88.12;;
58197;Laerm;43999;51.660;5.616;2023-04-03T12:58:27;65.95;52.40;82.24;;
58197;Laerm;43999;51.660;5.616;2023-04-03T13:01:23;64.59;52.31;84.66;;
58197;Laerm;43999;51.660;5.616;2023-04-03T13:03:57;64.63;54.36;81.66;;
58197;Laerm;43999;51.660;5.616;2023-04-03T13:06:45;65.31;55.10;82.35;;
58197;Laerm;43999;51.660;5.616;2023-04-03T13:09:36;64.71;54.17;82.41;;
58197;Laerm;43999;51.660;5.616;2023-04-03T13:12:16;67.93;54.55;86.89;;
58197;Laerm;43999;51.660;5.616;2023-04-03T13:15:11;63.63;51.60;80.42;;
58197;Laerm;43999;51.660;5.616;2023-04-03T13:17:44;66.32;55.46;85.84;;
58197;Laerm;43999;51.660;5.616;2023-04-03T13:20:36;68.80;55.88;89.47;;
58197;Laerm;43999;51.660;5.616;2023-04-03T13:23:12;66.71;53.74;90.30;;
58197;Laerm;43999;51.660;5.616;2023-04-03T13:25:45;69.01;52.72;95.51;;
58197;Laerm;43999;51.660;5.616;2023-04-03T13:28:23;65.98;52.99;82.46;;
58197;Laerm;43999;51.660;5.616;2023-04-03T13:31:35;64.91;54.83;82.27;;
58197;Laerm;43999;51.660;5.616;2023-04-03T13:34:17;67.78;54.99;86.97;;
58197;Laerm;43999;51.660;5.616;2023-04-03T13:36:59;70.17;57.25;87.77;;
58197;Laerm;43999;51.660;5.616;2023-04-03T13:39:40;67.04;53.55;87.76;;
58197;Laerm;43999;51.660;5.616;2023-04-03T13:42:30;67.46;49.34;87.80;;
58197;Laerm;43999;51.660;5.616;2023-04-03T13:45:30;68.98;56.12;88.78;;
58197;Laerm;43999;51.660;5.616;2023-04-03T13:48:21;67.85;55.82;90.30;;
58197;Laerm;43999;51.660;5.616;2023-04-03T13:54:52;65.34;49.85;86.20;;
58197;Laerm;43999;51.660;5.616;2023-04-03T13:57:02;69.77;57.43;88.83;;
58197;Laerm;43999;51.660;5.616;2023-04-03T13:59:35;67.81;56.70;91.62;;
58197;Laerm;43999;51.660;5.616;2023-04-03T14:04:47;67.06;48.76;90.14;;
58197;Laerm;43999;51.660;5.616;2023-04-03T14:07:17;67.72;54.77;87.01;;
58197;Laerm;43999;51.660;5.616;2023-04-03T14:09:54;66.73;55.60;84.68;;
58197;Laerm;43999;51.660;5.616;2023-04-03T14:12:39;64.31;54.75;80.84;;
58197;Laerm;43999;51.660;5.616;2023-04-03T14:15:31;67.87;52.39;91.21;;
58197;Laerm;43999;51.660;5.616;2023-04-03T14:18:00;65.61;54.98;82.33;;
58197;Laerm;43999;51.660;5.616;2023-04-03T14:20:32;64.89;53.51;85.37;;
58197;Laerm;43999;51.660;5.616;2023-04-03T14:22:59;67.29;52.89;87.24;;
58197;Laerm;43999;51.660;5.616;2023-04-03T14:25:30;63.55;54.99;82.28;;
58197;Laerm;43999;51.660;5.616;2023-04-03T14:27:58;70.83;56.51;98.27;;
58197;Laerm;43999;51.660;5.616;2023-04-03T14:30:34;66.52;53.58;86.03;;
58197;Laerm;43999;51.660;5.616;2023-04-03T14:33:03;66.54;50.76;90.48;;
58197;Laerm;43999;51.660;5.616;2023-04-03T14:35:31;65.21;52.24;79.97;;
58197;Laerm;43999;51.660;5.616;2023-04-03T14:38:02;65.99;51.51;85.49;;
58197;Laerm;43999;51.660;5.616;2023-04-03T14:40:33;66.48;55.01;84.03;;
58197;Laerm;43999;51.660;5.616;2023-04-03T14:43:05;69.17;57.42;87.65;;
58197;Laerm;43999;51.660;5.616;2023-04-03T14:45:36;66.84;54.94;88.45;;
58197;Laerm;43999;51.660;5.616;2023-04-03T14:48:15;65.43;53.96;82.61;;
58197;Laerm;43999;51.660;5.616;2023-04-03T14:50:49;68.01;56.23;87.37;;
58197;Laerm;43999;51.660;5.616;2023-04-03T14:53:34;64.92;53.13;83.69;;
58197;Laerm;43999;51.660;5.616;2023-04-03T14:56:27;64.56;51.97;82.54;;
58197;Laerm;43999;51.660;5.616;2023-04-03T14:59:09;64.74;52.94;76.55;;
58197;Laerm;43999;51.660;5.616;2023-04-03T15:01:49;65.23;53.32;80.50;;
58197;Laerm;43999;51.660;5.616;2023-04-03T15:04:22;65.54;51.97;83.50;;
58197;Laerm;43999;51.660;5.616;2023-04-03T15:06:52;65.67;56.57;80.08;;
58197;Laerm;43999;51.660;5.616;2023-04-03T15:09:37;65.40;55.26;87.00;;
58197;Laerm;43999;51.660;5.616;2023-04-03T15:12:09;65.12;55.77;81.39;;
58197;Laerm;43999;51.660;5.616;2023-04-03T15:14:43;66.38;51.15;87.02;;
58197;Laerm;43999;51.660;5.616;2023-04-03T15:17:27;66.96;56.00;85.93;;
58197;Laerm;43999;51.660;5.616;2023-04-03T15:19:55;65.71;53.32;81.97;;
58197;Laerm;43999;51.660;5.616;2023-04-03T15:22:27;65.68;53.80;85.94;;
58197;Laerm;43999;51.660;5.616;2023-04-03T15:25:03;66.82;52.79;89.30;;
58197;Laerm;43999;51.660;5.616;2023-04-03T15:27:34;64.84;55.67;79.91;;
58197;Laerm;43999;51.660;5.616;2023-04-03T15:30:11;63.55;54.31;79.27;;
58197;Laerm;43999;51.660;5.616;2023-04-03T15:32:42;64.50;55.81;82.03;;
58197;Laerm;43999;51.660;5.616;2023-04-03T15:35:15;65.92;56.97;81.41;;
58197;Laerm;43999;51.660;5.616;2023-04-03T15:37:51;65.93;54.62;86.10;;
58197;Laerm;43999;51.660;5.616;2023-04-03T15:40:20;67.68;51.59;91.91;;
58197;Laerm;43999;51.660;5.616;2023-04-03T15:42:51;65.73;54.32;91.29;;
58197;Laerm;43999;51.660;5.616;2023-04-03T15:45:24;63.97;51.64;78.47;;
58197;Laerm;43999;51.660;5.616;2023-04-03T15:47:53;63.82;52.11;78.44;;
58197;Laerm;43999;51.660;5.616;2023-04-03T15:50:22;67.82;52.57;86.67;;
58197;Laerm;43999;51.660;5.616;2023-04-03T15:52:53;65.69;55.04;87.71;;
58197;Laerm;43999;51.660;5.616;2023-04-03T15:55:35;68.61;51.75;89.95;;
58197;Laerm;43999;51.660;5.616;2023-04-03T15:58:04;66.58;51.37;83.82;;
58197;Laerm;43999;51.660;5.616;2023-04-03T16:00:49;67.90;52.29;88.03;;
58197;Laerm;43999;51.660;5.616;2023-04-03T16:03:20;65.14;53.02;82.92;;
58197;Laerm;43999;51.660;5.616;2023-04-03T16:05:50;62.86;51.11;76.47;;
58197;Laerm;43999;51.660;5.616;2023-04-03T16:08:22;66.97;48.12;87.24;;
58197;Laerm;43999;51.660;5.616;2023-04-03T16:10:51;64.91;52.10;80.36;;
58197;Laerm;43999;51.660;5.616;2023-04-03T16:13:20;65.75;53.81;82.96;;
58197;Laerm;43999;51.660;5.616;2023-04-03T16:15:54;62.36;51.69;79.51;;
58197;Laerm;43999;51.660;5.616;2023-04-03T16:18:22;67.20;53.00;89.73;;
58197;Laerm;43999;51.660;5.616;2023-04-03T16:21:07;64.65;49.96;81.59;;
58197;Laerm;43999;51.660;5.616;2023-04-03T16:23:52;68.05;53.83;87.77;;
58197;Laerm;43999;51.660;5.616;2023-04-03T16:26:22;65.87;52.28;86.86;;